Aérodrome :
LOGIN :

S'inscrire | Disclaimer

   EN    FR    IT 

 










Légende :    VFR   VFR Marginal   IFR   IFR Intensif   IFR Très Intensif
Visi : 
Plafond : 
>= 8 km
>= 3000ft
5 à 8 km
1000 à 3000 ft
1500m à 5 km
500 à 1000 ft
800 à 1500m
200 à 500 ft
< 800m
< 200 ft
Symboles :   Orages  Brouillard  Fortes neiges  Fortes précipitations  Vent > 20 kt
SIGMETs :   Divers  Orages  Givrage  Turbulence  Onde Orograph.  Cendres Volcan.






- Altitude de l'aérodrome : 529 ft
- Code IATA : CHR


LFLX - Chateauroux

DERNIER METAR :
  • 261530Z AUTO 23009KT 9999 SCT027 SCT054 10/07 Q1018 NOSIG

METARs EXPIRÉS :
  • 261500Z AUTO 23011KT 9999 BKN016 BKN045 10/07 Q1018 NOSIG
  • 261430Z AUTO 25010KT 9999 BKN014 BKN019 OVC025 10/08 Q1018 BECMG BKN020
  • 261400Z AUTO 22009KT 190V250 9999 BKN014 OVC042 10/09 Q1018 BECMG BKN020
  • 261330Z AUTO 21010KT 9999 -RADZ BKN013 BKN020 OVC035 09/08 Q1018 BECMG BKN020
  • 261300Z AUTO 21008KT 9999 BKN012 BKN032 OVC054 09/08 Q1018 TEMPO BKN006

TAF TAF LFLX
Valide du 26 à 12h jusqu'au 27 à 18h UTC


261100Z 2612/2718 23008KT 9999 BKN020
TEMPO 2612/2615 BKN006
BECMG 2622/2624 -RA
TEMPO 2701/2705 20015G25KT 2500 RA BKN014
TEMPO 2711/2715 20015G25KT 4000 RA BKN014 SCT020TCU
TEMPO 2715/2718 20015G30KT 2500 SHRA BKN014 SCT020TCU



MET'MAP, la Météo Aéronautique d'un coup d'oeil ! - Copyright ORBIFLY Décembre 2007 - Disclaimer

ORBIFLY MET'MAP TEAM :

Programmation & Développement : Alexandra Zaïnal
Sur une idée originale de : Baudouin d'Aumeries
Assistance à la programmation : Marc-Olivier Méhu
Soutien technique & logistique : Manuel Goepfert

Contact : metmap@orbifly.com




SOURCES & CREDITS :

   NOAA